createdAt,value
2019-02-20T00:00:40.258Z,41.14
2019-02-20T00:01:40.044Z,39.90
2019-02-20T00:02:40.024Z,39.24
2019-02-20T00:03:40.029Z,38.39
2019-02-20T00:04:39.916Z,35.26
2019-02-20T00:05:39.904Z,33.65
2019-02-20T00:06:39.849Z,34.12
2019-02-20T00:07:39.970Z,35.93
2019-02-20T00:08:39.793Z,36.21
2019-02-20T00:09:39.709Z,35.83
2019-02-20T00:10:39.780Z,34.78
2019-02-20T00:11:39.627Z,33.08
2019-02-20T00:12:39.593Z,32.23
2019-02-20T00:13:39.540Z,34.12
2019-02-20T00:14:39.528Z,34.50
2019-02-20T00:15:39.580Z,33.75
2019-02-20T00:16:39.413Z,33.75
2019-02-20T00:17:39.398Z,33.84
2019-02-20T00:18:39.476Z,35.07
2019-02-20T00:19:39.354Z,36.78
2019-02-20T00:20:39.257Z,38.58
2019-02-20T00:21:39.219Z,39.24
2019-02-20T00:22:40.450Z,35.45
2019-02-20T00:23:39.229Z,34.50
2019-02-20T00:24:39.087Z,33.08
2019-02-20T00:25:39.040Z,32.04
2019-02-20T00:26:39.062Z,31.75
2019-02-20T00:27:38.950Z,33.27
2019-02-20T00:28:38.909Z,32.89
2019-02-20T00:29:39.037Z,31.95
2019-02-20T00:30:38.926Z,28.06
2019-02-20T00:31:38.789Z,27.49
2019-02-20T00:32:38.813Z,27.39
2019-02-20T00:33:38.696Z,28.91
2019-02-20T00:34:38.748Z,28.63
2019-02-20T00:35:38.801Z,27.87
2019-02-20T00:36:38.597Z,28.15
2019-02-20T00:37:38.626Z,29.48
2019-02-20T00:38:38.506Z,30.99
2019-02-20T00:39:38.477Z,32.14
2019-02-20T00:40:38.411Z,32.23
2019-02-20T00:41:38.385Z,32.04
2019-02-20T00:42:38.334Z,31.95
2019-02-20T00:43:38.289Z,32.51
2019-02-20T00:44:38.468Z,33.46
2019-02-20T00:45:38.190Z,34.03
2019-02-20T00:46:38.167Z,33.37
2019-02-20T00:47:38.114Z,35.17
2019-02-20T00:48:38.064Z,34.03
2019-02-20T00:49:38.108Z,30.80
2019-02-20T00:50:37.981Z,31.28
2019-02-20T00:51:38.100Z,31.47
2019-02-20T00:52:38.067Z,33.75
2019-02-20T00:53:37.877Z,32.98
2019-02-20T00:54:37.812Z,32.79
2019-02-20T00:55:37.776Z,32.42
2019-02-20T00:56:37.745Z,30.99
2019-02-20T00:57:37.687Z,28.91
2019-02-20T00:58:37.760Z,27.11
2019-02-20T00:59:37.644Z,26.07
2019-02-20T01:00:37.557Z,27.01
2019-02-20T01:01:37.595Z,27.49
2019-02-20T01:02:37.494Z,27.11
2019-02-20T01:03:37.437Z,26.82
2019-02-20T01:04:37.400Z,28.25
2019-02-20T01:05:37.342Z,28.34
2019-02-20T01:06:37.309Z,27.96
2019-02-20T01:07:37.269Z,25.97
2019-02-20T01:08:37.262Z,24.46
2019-02-20T01:09:37.181Z,23.32
2019-02-20T01:10:37.140Z,25.40
2019-02-20T01:11:37.103Z,24.27
2019-02-20T01:12:37.054Z,23.50
2019-02-20T01:13:37.059Z,21.89
2019-02-20T01:14:37.038Z,21.04
2019-02-20T01:15:36.945Z,19.71
2019-02-20T01:16:36.885Z,16.30
2019-02-20T01:17:36.869Z,14.31
2019-02-20T01:18:36.793Z,13.36
2019-02-20T01:19:36.789Z,14.03
2019-02-20T01:20:36.716Z,12.51
2019-02-20T01:21:36.682Z,10.71
2019-02-20T01:22:36.627Z,11.56
2019-02-20T01:23:36.599Z,13.46
2019-02-20T01:24:36.576Z,14.22
2019-02-20T01:25:36.573Z,16.49
2019-02-20T01:26:36.548Z,16.31
2019-02-20T01:27:36.424Z,16.60
2019-02-20T01:28:36.374Z,16.68
2019-02-20T01:29:36.482Z,15.83
2019-02-20T01:30:36.292Z,14.31
2019-02-20T01:31:36.266Z,14.78
2019-02-20T01:32:36.202Z,15.26
2019-02-20T01:33:36.179Z,15.73
2019-02-20T01:34:36.143Z,17.72
2019-02-20T01:35:36.094Z,17.25
2019-02-20T01:36:36.109Z,14.78
2019-02-20T01:37:36.011Z,14.59
2019-02-20T01:38:36.102Z,14.22
2019-02-20T01:39:36.010Z,13.36
2019-02-20T01:40:35.936Z,11.85
2019-02-20T01:41:35.896Z,12.98
2019-02-20T01:42:35.821Z,12.98
2019-02-20T01:43:35.770Z,13.08
2019-02-20T01:44:35.812Z,14.40
2019-02-20T01:45:35.671Z,16.11
2019-02-20T01:46:35.623Z,17.72
2019-02-20T01:47:35.659Z,18.58
2019-02-20T01:48:35.531Z,18.86
2019-02-20T01:49:35.523Z,15.55
2019-02-20T01:50:35.440Z,15.83
2019-02-20T01:51:35.395Z,17.16
2019-02-20T01:52:35.392Z,14.31
2019-02-20T01:53:35.368Z,14.97
2019-02-20T01:54:35.286Z,17.91
2019-02-20T01:55:35.257Z,18.39
2019-02-20T01:56:35.188Z,17.72
2019-02-20T01:57:35.166Z,21.33
2019-02-20T01:58:35.142Z,17.72
2019-02-20T01:59:35.069Z,18.67
2019-02-20T02:00:35.100Z,18.77
2019-02-20T02:01:35.045Z,18.10
2019-02-20T02:02:34.964Z,17.16
2019-02-20T02:03:34.888Z,17.06
2019-02-20T02:04:34.890Z,16.97
2019-02-20T02:05:34.949Z,14.50
2019-02-20T02:06:34.817Z,12.70
2019-02-20T02:07:34.885Z,13.27
2019-02-20T02:08:34.689Z,16.39
2019-02-20T02:09:34.647Z,15.26
2019-02-20T02:10:34.656Z,14.12
2019-02-20T02:11:34.679Z,11.56
2019-02-20T02:12:34.507Z,10.52
2019-02-20T02:13:34.493Z,10.24
2019-02-20T02:14:34.522Z,7.39
2019-02-20T02:15:34.399Z,3.60
2019-02-20T02:16:34.345Z,4.64
2019-02-20T02:17:34.441Z,5.11
2019-02-20T02:18:34.341Z,5.21
2019-02-20T02:19:34.278Z,4.36
2019-02-20T02:20:34.174Z,3.50
2019-02-20T02:21:34.132Z,2.46
2019-02-20T02:22:34.100Z,2.84
2019-02-20T02:23:34.160Z,3.88
2019-02-20T02:24:34.007Z,5.78
2019-02-20T02:25:34.066Z,4.93
2019-02-20T02:26:34.049Z,6.16
2019-02-20T02:27:34.047Z,7.20
2019-02-20T02:28:34.037Z,6.73
2019-02-20T02:29:33.792Z,4.93
2019-02-20T02:30:33.766Z,4.93
2019-02-20T02:31:33.704Z,6.07
2019-02-20T02:32:33.710Z,7.20
2019-02-20T02:33:33.625Z,7.87
2019-02-20T02:34:33.623Z,8.25
2019-02-20T02:35:33.624Z,8.34
2019-02-20T02:36:33.490Z,9.77
2019-02-20T02:37:33.478Z,11.85
2019-02-20T02:38:33.548Z,10.14
2019-02-20T02:39:33.379Z,8.91
2019-02-20T02:40:33.332Z,8.91
2019-02-20T02:41:33.287Z,8.25
2019-02-20T02:42:33.259Z,7.97
2019-02-20T02:43:33.281Z,6.35
2019-02-20T02:44:33.232Z,5.97
2019-02-20T02:45:33.171Z,4.83
2019-02-20T02:46:33.074Z,5.50
2019-02-20T02:47:33.080Z,5.21
2019-02-20T02:48:33.046Z,5.31
2019-02-20T02:49:33.788Z,4.36
2019-02-20T02:50:32.907Z,3.31
2019-02-20T02:51:32.933Z,4.55
2019-02-20T02:52:32.816Z,4.46
2019-02-20T02:53:32.805Z,4.55
2019-02-20T02:54:32.780Z,4.83
2019-02-20T02:55:32.696Z,4.64
2019-02-20T02:56:32.781Z,6.35
2019-02-20T02:57:32.721Z,7.49
2019-02-20T02:58:32.786Z,7.40
2019-02-20T02:59:32.569Z,7.78
2019-02-20T03:00:32.485Z,7.97
2019-02-20T03:01:32.431Z,7.49
2019-02-20T03:02:32.404Z,7.40
2019-02-20T03:03:32.348Z,7.11
2019-02-20T03:04:32.337Z,6.82
2019-02-20T03:05:32.339Z,6.92
2019-02-20T03:06:32.367Z,7.40
2019-02-20T03:07:32.206Z,7.30
2019-02-20T03:08:32.362Z,6.92
2019-02-20T03:09:32.129Z,3.60
2019-02-20T03:10:32.083Z,4.64
2019-02-20T03:11:32.046Z,4.83
2019-02-20T03:12:32.038Z,5.69
2019-02-20T03:13:31.996Z,8.06
2019-02-20T03:14:31.883Z,8.25
2019-02-20T03:15:31.837Z,7.40
2019-02-20T03:16:31.905Z,7.97
2019-02-20T03:17:31.843Z,7.97
2019-02-20T03:18:31.724Z,8.06
2019-02-20T03:19:31.676Z,8.63
2019-02-20T03:20:31.641Z,8.53
2019-02-20T03:21:31.623Z,8.82
2019-02-20T03:22:32.276Z,8.44
2019-02-20T03:23:40.040Z,6.16
2019-02-20T03:24:31.470Z,4.83
2019-02-20T03:25:31.423Z,3.89
2019-02-20T03:26:31.951Z,3.31
2019-02-20T03:27:31.393Z,3.79
2019-02-20T03:28:31.326Z,4.27
2019-02-20T03:29:31.309Z,4.46
2019-02-20T03:30:31.279Z,4.64
2019-02-20T03:31:31.216Z,3.50
2019-02-20T03:32:31.214Z,3.89
2019-02-20T03:33:31.159Z,4.64
2019-02-20T03:34:31.107Z,5.31
2019-02-20T03:35:30.995Z,5.31
2019-02-20T03:36:30.978Z,6.35
2019-02-20T03:37:31.016Z,7.68
2019-02-20T03:38:30.984Z,7.78
2019-02-20T03:39:30.853Z,9.10
2019-02-20T03:40:30.950Z,8.63
2019-02-20T03:41:30.750Z,8.25
2019-02-20T03:42:30.771Z,8.44
2019-02-20T03:43:30.671Z,7.97
2019-02-20T03:44:30.620Z,8.06
2019-02-20T03:45:30.602Z,8.53
2019-02-20T03:46:30.553Z,8.82
2019-02-20T03:47:30.666Z,9.39
2019-02-20T03:48:30.473Z,9.77
2019-02-20T03:49:30.420Z,9.58
2019-02-20T04:06:10.363Z,6.16
2019-02-20T04:07:02.653Z,7.20
2019-02-20T04:08:02.603Z,8.15
2019-02-20T04:09:02.562Z,10.14
2019-02-20T04:10:02.514Z,11.38
2019-02-20T04:11:02.463Z,13.46
2019-02-20T04:12:02.420Z,12.71
2019-02-20T04:13:02.388Z,10.90
2019-02-20T04:14:02.336Z,8.91
2019-02-20T04:15:02.287Z,8.34
2019-02-20T04:16:02.289Z,7.97
2019-02-20T04:17:02.213Z,7.11
2019-02-20T04:18:02.154Z,7.11
2019-02-20T04:19:02.132Z,11.38
2019-02-20T04:20:02.071Z,12.61
2019-02-20T04:21:02.026Z,9.67
2019-02-20T04:22:01.991Z,10.90
2019-02-20T04:23:02.074Z,11.57
2019-02-20T04:24:02.958Z,10.24
2019-02-20T04:25:01.858Z,8.53
2019-02-20T04:26:01.820Z,5.59
2019-02-20T04:27:01.767Z,5.78
2019-02-20T04:28:01.729Z,5.21
2019-02-20T04:29:01.691Z,5.21
2019-02-20T04:30:01.647Z,5.31
2019-02-20T04:31:01.597Z,5.02
2019-02-20T04:32:01.562Z,5.78
2019-02-20T04:33:04.270Z,5.50
2019-02-20T04:35:51.085Z,6.26
2019-02-20T04:36:47.044Z,6.26
2019-02-20T04:37:47.003Z,4.55
2019-02-20T04:38:46.967Z,4.36
2019-02-20T04:39:46.912Z,3.98
2019-02-20T04:40:46.875Z,3.98
2019-02-20T04:41:46.833Z,3.98
2019-02-20T04:42:46.787Z,4.17
2019-02-20T04:43:46.751Z,4.74
2019-02-20T04:44:46.710Z,4.83
2019-02-20T04:45:46.665Z,5.40
2019-02-20T04:46:46.624Z,5.78
2019-02-20T04:47:46.574Z,6.07
2019-02-20T04:48:46.533Z,5.97
2019-02-20T04:49:46.492Z,6.16
2019-02-20T04:50:46.448Z,6.16
2019-02-20T04:51:46.410Z,6.16
2019-02-20T04:52:46.387Z,5.21
2019-02-20T04:53:46.332Z,4.74
2019-02-20T04:54:46.280Z,4.46
2019-02-20T04:55:46.242Z,3.31
2019-02-20T04:56:46.198Z,3.31
2019-02-20T04:57:46.154Z,3.50
2019-02-20T04:58:46.116Z,3.60
2019-02-20T04:59:46.069Z,3.89
2019-02-20T05:00:46.149Z,4.64
2019-02-20T05:01:45.993Z,4.08
2019-02-20T05:02:45.942Z,3.79
2019-02-20T05:03:45.932Z,3.50
2019-02-20T05:04:45.874Z,3.60
2019-02-20T05:05:45.865Z,1.51
2019-02-20T05:06:45.777Z,1.89
2019-02-20T05:07:45.738Z,1.80
2019-02-20T05:08:45.694Z,1.32
2019-02-20T05:09:45.686Z,1.14
2019-02-20T05:10:45.613Z,0.76
2019-02-20T05:11:45.574Z,0.47
2019-02-20T05:12:45.524Z,0.09
2019-02-20T05:13:45.476Z,0.00
2019-02-20T05:14:45.446Z,0.00
2019-02-20T05:15:45.406Z,0.00
2019-02-20T05:16:45.364Z,0.00
2019-02-20T05:17:45.314Z,0.00
2019-02-20T05:18:45.287Z,0.00
2019-02-20T05:19:45.228Z,0.00
2019-02-20T05:20:45.181Z,0.00
2019-02-20T05:21:45.144Z,0.00
2019-02-20T05:22:45.100Z,0.00
2019-02-20T05:23:45.142Z,0.00
2019-02-20T05:24:45.021Z,0.00
2019-02-20T05:25:44.977Z,0.00
2019-02-20T05:26:44.934Z,0.00
2019-02-20T05:27:44.890Z,0.00
2019-02-20T05:28:44.849Z,0.00
2019-02-20T05:29:44.817Z,0.00
2019-02-20T05:30:44.765Z,0.00
2019-02-20T05:31:44.739Z,0.00
2019-02-20T05:32:44.682Z,0.00
2019-02-20T05:33:44.637Z,0.00
2019-02-20T05:34:44.593Z,0.00
2019-02-20T05:35:44.553Z,0.00
2019-02-20T05:36:44.510Z,0.00
2019-02-20T05:37:44.490Z,0.00
2019-02-20T05:38:44.441Z,0.00
2019-02-20T05:39:44.390Z,0.00
2019-02-20T05:40:44.337Z,0.00
2019-02-20T05:41:44.305Z,0.00
2019-02-20T05:42:44.263Z,0.00
2019-02-20T05:43:44.251Z,0.00
2019-02-20T05:44:44.250Z,0.00
2019-02-20T05:45:44.154Z,0.00
2019-02-20T05:46:44.149Z,0.00
2019-02-20T05:47:44.069Z,0.00
2019-02-20T05:48:44.009Z,0.00
2019-02-20T05:49:43.974Z,0.00
2019-02-20T05:50:43.930Z,0.00
2019-02-20T05:51:43.887Z,0.00
2019-02-20T05:52:43.833Z,0.00
2019-02-20T05:53:43.789Z,0.00
2019-02-20T05:54:43.758Z,0.00
2019-02-20T05:55:43.746Z,0.00
2019-02-20T05:56:43.673Z,0.00
2019-02-20T05:57:43.622Z,0.00
2019-02-20T05:58:43.599Z,0.00
2019-02-20T05:59:43.550Z,0.00
2019-02-20T06:00:43.511Z,0.00
2019-02-20T06:01:43.463Z,0.00
2019-02-20T06:02:43.417Z,0.00
2019-02-20T06:03:43.381Z,0.00
2019-02-20T06:04:43.336Z,0.00
2019-02-20T06:05:43.289Z,0.00
2019-02-20T06:06:43.245Z,0.00
2019-02-20T06:07:43.212Z,0.00
2019-02-20T06:08:43.171Z,0.00
2019-02-20T06:09:43.126Z,0.00
2019-02-20T06:10:43.123Z,0.00
2019-02-20T06:11:43.043Z,0.00
2019-02-20T06:12:42.991Z,0.00
2019-02-20T06:13:42.958Z,0.00
2019-02-20T06:14:42.911Z,0.00
2019-02-20T06:15:43.180Z,0.00
2019-02-20T06:16:42.925Z,0.00
2019-02-20T06:17:42.842Z,0.00
2019-02-20T06:18:42.781Z,0.00
2019-02-20T06:19:42.777Z,0.00
2019-02-20T06:20:42.716Z,0.00
2019-02-20T06:21:42.636Z,0.00
2019-02-20T06:22:42.591Z,0.00
2019-02-20T06:23:42.537Z,0.00
2019-02-20T06:24:44.326Z,0.00
2019-02-20T06:25:42.478Z,0.00
2019-02-20T06:26:42.417Z,0.00
2019-02-20T06:27:42.430Z,0.00
2019-02-20T06:28:42.330Z,0.00
2019-02-20T06:29:42.280Z,0.00
2019-02-20T06:30:42.248Z,0.00
2019-02-20T06:31:42.197Z,0.00
2019-02-20T06:32:42.196Z,0.00
2019-02-20T06:33:42.169Z,0.00
2019-02-20T06:34:42.072Z,0.00
2019-02-20T06:35:42.037Z,0.00
2019-02-20T06:36:42.020Z,0.00
2019-02-20T06:37:41.948Z,0.00
2019-02-20T06:38:41.937Z,0.00
2019-02-20T06:39:41.878Z,0.00
2019-02-20T06:40:41.851Z,0.00
2019-02-20T06:41:41.782Z,0.00
2019-02-20T06:42:41.770Z,0.00
2019-02-20T06:43:41.735Z,0.00
2019-02-20T06:44:41.659Z,0.00
2019-02-20T06:45:41.656Z,0.00
2019-02-20T06:46:41.583Z,0.00
2019-02-20T06:47:41.525Z,0.00
2019-02-20T06:48:41.480Z,0.00
2019-02-20T06:49:41.440Z,0.00
2019-02-20T06:50:41.398Z,0.00
2019-02-20T06:51:41.380Z,0.00
2019-02-20T06:52:41.413Z,0.00
2019-02-20T06:53:41.305Z,0.00
2019-02-20T06:54:41.245Z,0.00
2019-02-20T06:55:41.221Z,0.00
2019-02-20T06:56:41.145Z,0.00
2019-02-20T06:57:41.129Z,0.00
2019-02-20T06:58:41.072Z,0.00
2019-02-20T06:59:41.025Z,0.00
2019-02-20T07:00:41.005Z,0.00
2019-02-20T07:01:40.940Z,0.00
2019-02-20T07:02:40.943Z,0.00
2019-02-20T07:03:40.858Z,0.00
2019-02-20T07:04:40.842Z,0.00
2019-02-20T07:05:40.773Z,0.00
2019-02-20T07:06:40.804Z,0.00
2019-02-20T07:07:40.687Z,0.00
2019-02-20T07:08:40.660Z,0.00
2019-02-20T07:09:40.715Z,0.00
2019-02-20T07:10:40.579Z,0.00
2019-02-20T07:11:40.644Z,0.00
2019-02-20T07:12:40.505Z,0.00
2019-02-20T07:13:40.520Z,0.00
2019-02-20T07:14:40.416Z,0.00
2019-02-20T07:15:40.353Z,0.00
2019-02-20T07:16:40.315Z,0.00
2019-02-20T07:17:40.286Z,0.00
2019-02-20T07:18:40.257Z,0.00
2019-02-20T07:19:40.190Z,0.00
2019-02-20T07:20:40.158Z,0.00
2019-02-20T07:21:40.150Z,0.00
2019-02-20T07:22:40.060Z,0.00
2019-02-20T07:23:40.028Z,0.00
2019-02-20T07:24:39.981Z,0.00
2019-02-20T07:25:39.964Z,0.00
2019-02-20T07:26:39.903Z,0.00
2019-02-20T07:27:39.858Z,0.00
2019-02-20T07:28:39.808Z,0.00
2019-02-20T07:29:39.798Z,0.00
2019-02-20T07:30:39.775Z,0.00
2019-02-20T07:31:39.718Z,0.00
2019-02-20T07:32:39.647Z,0.00
2019-02-20T07:33:39.610Z,0.00
2019-02-20T07:34:39.579Z,0.00
2019-02-20T07:35:39.555Z,0.00
2019-02-20T07:36:39.511Z,0.00
2019-02-20T07:37:39.454Z,0.00
2019-02-20T07:38:39.410Z,0.00
2019-02-20T07:39:39.352Z,0.00
2019-02-20T07:40:39.331Z,0.00
2019-02-20T07:41:39.291Z,0.00
2019-02-20T07:42:39.225Z,0.00
2019-02-20T07:43:39.198Z,0.00
2019-02-20T07:44:39.172Z,0.00
2019-02-20T07:45:39.117Z,0.00
2019-02-20T07:46:39.088Z,0.00
2019-02-20T07:47:39.100Z,0.00
2019-02-20T07:48:39.030Z,0.00
2019-02-20T07:49:38.952Z,0.00
2019-02-20T07:50:38.904Z,0.00
2019-02-20T07:51:38.873Z,0.00
2019-02-20T07:52:38.826Z,0.00
2019-02-20T07:53:38.764Z,0.00
2019-02-20T07:54:38.722Z,0.00
2019-02-20T07:55:38.788Z,0.00
2019-02-20T07:56:38.718Z,0.00
2019-02-20T07:57:38.638Z,0.00
2019-02-20T07:58:38.581Z,0.00
2019-02-20T07:59:38.535Z,0.00
2019-02-20T08:00:38.477Z,0.00
2019-02-20T08:01:38.442Z,0.00
2019-02-20T08:02:38.398Z,0.00
2019-02-20T08:03:38.351Z,0.00
2019-02-20T08:04:38.314Z,0.00
2019-02-20T08:05:38.264Z,0.00
2019-02-20T08:06:38.224Z,0.00
2019-02-20T08:07:38.186Z,0.00
2019-02-20T08:08:38.150Z,0.47
2019-02-20T08:09:38.107Z,1.32
2019-02-20T08:10:38.064Z,1.80
2019-02-20T08:11:38.161Z,1.61
2019-02-20T08:12:37.976Z,2.18
2019-02-20T08:13:39.561Z,2.18
2019-02-20T08:14:37.906Z,2.09
2019-02-20T08:15:37.860Z,3.32
2019-02-20T08:16:37.823Z,3.70
2019-02-20T08:17:37.789Z,3.32
2019-02-20T08:18:37.743Z,2.75
2019-02-20T08:19:37.707Z,3.51
2019-02-20T08:20:37.661Z,4.08
2019-02-20T08:21:37.622Z,4.46
2019-02-20T08:22:37.586Z,4.17
2019-02-20T08:23:37.522Z,4.93
2019-02-20T08:24:37.486Z,4.65
2019-02-20T08:25:37.462Z,3.80
2019-02-20T08:26:37.396Z,3.32
2019-02-20T08:27:37.359Z,4.08
2019-02-20T08:28:37.322Z,4.36
2019-02-20T08:29:37.302Z,3.80
2019-02-20T08:30:37.261Z,3.23
2019-02-20T08:31:37.229Z,3.04
2019-02-20T08:32:37.154Z,3.42
2019-02-20T08:33:37.139Z,4.27
2019-02-20T08:34:37.176Z,4.94
2019-02-20T08:35:37.045Z,5.32
2019-02-20T08:36:36.998Z,6.93
2019-02-20T08:37:36.986Z,9.02
2019-02-20T08:38:36.918Z,10.64
2019-02-20T08:39:36.864Z,9.50
2019-02-20T08:40:36.845Z,9.88
2019-02-20T08:41:36.782Z,10.35
2019-02-20T08:42:36.823Z,12.54
2019-02-20T08:43:36.703Z,12.54
2019-02-20T08:44:36.698Z,11.58
2019-02-20T08:45:36.620Z,12.25
2019-02-20T08:46:36.606Z,11.87
2019-02-20T08:47:36.558Z,12.63
2019-02-20T08:48:36.517Z,12.63
2019-02-20T08:49:36.456Z,13.48
2019-02-20T08:50:36.424Z,14.15
2019-02-20T08:51:36.368Z,15.10
2019-02-20T08:52:36.357Z,15.29
2019-02-20T08:53:36.334Z,15.20
2019-02-20T08:54:36.247Z,14.72
2019-02-20T08:55:36.220Z,15.39
2019-02-20T08:56:36.293Z,17.77
2019-02-20T08:57:36.120Z,19.95
2019-02-20T08:58:36.081Z,20.23
2019-02-20T08:59:36.048Z,20.90
2019-02-20T09:00:36.022Z,20.24
2019-02-20T09:01:36.009Z,20.81
2019-02-20T09:02:35.919Z,21.95
2019-02-20T09:03:35.888Z,21.47
2019-02-20T09:04:35.841Z,22.05
2019-02-20T09:05:35.794Z,22.14
2019-02-20T09:06:35.755Z,21.57
2019-02-20T09:07:35.716Z,22.14
2019-02-20T09:08:35.678Z,22.80
2019-02-20T09:09:35.634Z,22.24
2019-02-20T09:10:35.593Z,23.66
2019-02-20T09:11:35.579Z,28.22
2019-02-20T09:12:35.534Z,28.51
2019-02-20T09:13:35.574Z,29.47
2019-02-20T09:14:35.496Z,30.51
2019-02-20T09:15:35.387Z,30.88
2019-02-20T09:16:35.355Z,31.45
2019-02-20T09:17:35.323Z,31.66
2019-02-20T09:18:35.381Z,31.66
2019-02-20T09:19:35.221Z,31.56
2019-02-20T09:20:35.184Z,31.18
2019-02-20T09:21:35.164Z,34.51
2019-02-20T09:22:35.103Z,33.65
2019-02-20T09:23:35.065Z,34.23
2019-02-20T09:24:35.047Z,38.12
2019-02-20T09:25:41.360Z,38.60
2019-02-20T09:26:34.938Z,38.51
2019-02-20T09:27:34.942Z,39.55
2019-02-20T09:28:34.880Z,39.45
2019-02-20T09:29:34.849Z,39.45
2019-02-20T09:30:34.786Z,39.84
2019-02-20T09:31:34.738Z,42.97
2019-02-20T09:32:34.700Z,43.07
2019-02-20T09:33:34.731Z,43.54
2019-02-20T09:34:34.643Z,44.12
2019-02-20T09:35:34.624Z,45.35
2019-02-20T09:36:34.546Z,44.97
2019-02-20T09:37:34.517Z,45.35
2019-02-20T09:38:34.525Z,46.20
2019-02-20T09:39:34.424Z,47.44
2019-02-20T09:40:34.374Z,46.40
2019-02-20T09:41:34.342Z,47.54
2019-02-20T09:42:34.418Z,48.77
2019-02-20T09:43:34.306Z,49.27
2019-02-20T09:44:34.219Z,50.89
2019-02-20T09:45:41.638Z,51.84
2019-02-20T09:46:34.210Z,52.80
2019-02-20T09:47:34.109Z,52.32
2019-02-20T09:48:34.063Z,52.70
2019-02-20T09:49:34.034Z,52.70
2019-02-20T09:50:33.981Z,52.41
2019-02-20T09:51:33.957Z,52.70
2019-02-20T09:52:33.893Z,51.93
2019-02-20T09:53:33.851Z,53.46
2019-02-20T09:54:33.834Z,53.55
2019-02-20T09:55:33.776Z,54.41
2019-02-20T09:56:33.764Z,56.03
2019-02-20T09:57:33.701Z,54.69
2019-02-20T09:58:33.659Z,54.60
2019-02-20T09:59:33.617Z,56.70
2019-02-20T10:00:33.574Z,57.07
2019-02-20T10:01:33.550Z,57.07
2019-02-20T10:02:33.521Z,59.36
2019-02-20T10:03:33.452Z,56.98
2019-02-20T10:04:33.447Z,60.88
2019-02-20T10:19:14.859Z,74.43
2019-02-20T10:20:14.786Z,72.05
2019-02-20T10:21:14.749Z,72.62
2019-02-20T10:22:14.704Z,71.95
2019-02-20T10:23:14.660Z,70.90
2019-02-20T10:24:14.619Z,71.57
2019-02-20T10:25:14.570Z,72.24
2019-02-20T10:26:14.529Z,73.85
2019-02-20T10:27:14.491Z,73.95
2019-02-20T16:03:34.531Z,95.89
2019-02-20T16:04:34.462Z,95.51
2019-02-20T16:05:34.413Z,95.22
2019-02-20T16:06:34.370Z,95.03
2019-02-20T16:07:34.339Z,94.84
2019-02-20T16:08:34.289Z,94.27
2019-02-20T16:09:34.247Z,94.46
2019-02-20T16:10:42.880Z,94.65
2019-02-20T16:12:38.619Z,93.88
2019-02-20T16:13:38.541Z,93.41
2019-02-20T16:14:38.503Z,93.03
2019-02-20T16:15:38.454Z,93.22
2019-02-20T16:16:40.553Z,93.41
2019-02-20T16:17:38.380Z,93.22
2019-02-20T16:18:38.341Z,92.36
2019-02-20T16:19:38.294Z,93.22
2019-02-20T16:20:38.258Z,92.17
2019-02-20T16:21:38.220Z,91.65
2019-02-20T16:22:38.175Z,92.27
2019-02-20T16:23:38.145Z,91.50
2019-02-20T16:24:38.104Z,90.70
2019-02-20T16:25:38.063Z,90.45
2019-02-20T16:26:38.029Z,89.65
2019-02-20T16:27:46.488Z,89.36
2019-02-20T16:28:37.942Z,89.65
2019-02-20T16:29:37.904Z,89.65
2019-02-20T16:30:37.861Z,89.65
2019-02-20T16:31:37.828Z,89.07
2019-02-20T16:32:37.789Z,89.07
2019-02-20T16:33:37.782Z,88.51
2019-02-20T16:34:37.706Z,88.03
2019-02-20T16:35:37.673Z,87.84
2019-02-20T16:36:37.631Z,87.36
2019-02-20T16:37:37.593Z,87.55
2019-02-20T16:38:37.558Z,86.98
2019-02-20T16:39:37.509Z,87.74
2019-02-20T16:40:37.473Z,87.36
2019-02-20T16:41:37.433Z,86.98
2019-02-20T16:42:39.254Z,86.32
2019-02-20T16:43:37.360Z,86.03
2019-02-20T16:44:37.319Z,85.74
2019-02-20T16:45:37.281Z,85.64
2019-02-20T16:46:37.241Z,85.84
2019-02-20T16:47:37.200Z,85.46
2019-02-20T16:48:37.163Z,85.60
2019-02-20T16:49:37.123Z,84.75
2019-02-20T16:50:37.087Z,84.36
2019-02-20T16:51:37.041Z,83.89
2019-02-20T16:52:37.009Z,84.08
2019-02-20T16:53:36.966Z,83.61
2019-02-20T16:54:36.931Z,83.32
2019-02-20T16:55:36.895Z,83.32
2019-02-20T16:56:36.853Z,82.84
2019-02-20T16:57:36.815Z,82.65
2019-02-20T16:58:36.778Z,82.65
2019-02-20T16:59:36.731Z,82.37
2019-02-20T17:00:36.695Z,81.89
2019-02-20T17:01:36.656Z,81.13
2019-02-20T17:02:36.619Z,80.94
2019-02-20T17:03:36.581Z,81.03
2019-02-20T17:04:36.542Z,80.94
2019-02-20T17:05:36.503Z,80.46
2019-02-20T17:06:36.462Z,80.36
2019-02-20T17:07:36.424Z,80.36
2019-02-20T17:08:36.384Z,80.27
2019-02-20T17:09:36.347Z,80.13
2019-02-20T17:10:36.308Z,80.27
2019-02-20T17:11:36.263Z,79.09
2019-02-20T17:12:36.227Z,79.47
2019-02-20T17:13:36.190Z,79.09
2019-02-20T17:14:36.585Z,78.90
2019-02-20T17:15:36.115Z,78.14
2019-02-20T17:16:36.094Z,77.85
2019-02-20T17:17:36.033Z,77.95
2019-02-20T17:18:35.996Z,77.56
2019-02-20T17:19:35.955Z,77.66
2019-02-20T17:20:35.915Z,77.37
2019-02-20T17:21:35.877Z,77.56
2019-02-20T17:22:35.843Z,76.81
2019-02-20T17:23:35.794Z,76.42
2019-02-20T17:24:35.762Z,76.61
2019-02-20T17:25:35.719Z,76.23
2019-02-20T17:26:35.679Z,75.47
2019-02-20T17:27:35.643Z,75.47
2019-02-20T17:28:35.605Z,74.99
2019-02-20T17:29:35.565Z,75.28
2019-02-20T17:30:35.527Z,74.71
2019-02-20T17:31:35.482Z,74.99
2019-02-20T17:32:35.446Z,74.52
2019-02-20T17:33:35.405Z,74.52
2019-02-20T17:34:35.362Z,74.14
2019-02-20T17:35:35.334Z,74.71
2019-02-20T17:36:35.291Z,74.04
2019-02-20T17:37:35.248Z,73.91
2019-02-20T17:38:35.208Z,73.82
2019-02-20T17:39:35.184Z,73.25
2019-02-20T17:40:35.133Z,73.25
2019-02-20T17:41:35.095Z,72.77
2019-02-20T17:42:35.056Z,72.67
2019-02-20T17:43:35.009Z,72.39
2019-02-20T17:44:34.973Z,71.82
2019-02-20T17:45:34.936Z,71.82
2019-02-20T17:46:34.894Z,71.91
2019-02-20T17:47:34.884Z,71.44
2019-02-20T17:48:34.819Z,71.06
2019-02-20T17:49:34.779Z,71.34
2019-02-20T17:50:34.745Z,70.58
2019-02-20T17:51:34.696Z,70.20
2019-02-20T17:52:34.659Z,70.10
2019-02-20T17:53:34.623Z,69.54
2019-02-20T17:54:34.582Z,69.44
2019-02-20T17:55:34.539Z,69.25
2019-02-20T17:56:34.500Z,68.68
2019-02-20T17:57:34.463Z,68.21
2019-02-20T17:58:34.419Z,68.65
2019-02-20T17:59:34.387Z,68.65
2019-02-20T18:00:34.350Z,68.65
2019-02-20T18:01:34.305Z,68.68
2019-02-20T18:02:34.266Z,68.36
2019-02-20T18:03:34.221Z,68.55
2019-02-20T18:04:35.938Z,68.27
2019-02-20T18:05:34.146Z,68.55
2019-02-20T18:06:34.101Z,68.36
2019-02-20T18:07:34.068Z,67.88
2019-02-20T18:08:34.028Z,67.60
2019-02-20T18:09:33.987Z,67.79
2019-02-20T18:10:33.944Z,67.13
2019-02-20T18:11:33.911Z,67.50
2019-02-20T18:12:33.870Z,67.13
2019-02-20T18:13:33.828Z,67.13
2019-02-20T18:14:33.792Z,67.32
2019-02-20T18:15:33.746Z,67.03
2019-02-20T18:16:33.708Z,67.22
2019-02-20T18:17:33.676Z,67.03
2019-02-20T18:18:33.628Z,66.65
2019-02-20T18:19:33.600Z,67.32
2019-02-20T18:20:33.567Z,67.13
2019-02-20T18:21:33.517Z,66.65
2019-02-20T18:22:33.475Z,66.36
2019-02-20T18:23:33.427Z,67.13
2019-02-20T18:24:33.396Z,66.55
2019-02-20T18:25:33.351Z,66.17
2019-02-20T18:26:33.321Z,67.03
2019-02-20T18:27:33.275Z,65.80
2019-02-20T18:28:33.236Z,65.60
2019-02-20T18:29:33.202Z,65.99
2019-02-20T18:30:33.157Z,66.08
2019-02-20T18:31:33.119Z,66.08
2019-02-20T18:32:33.072Z,65.80
2019-02-20T18:33:33.038Z,66.08
2019-02-20T18:34:32.994Z,65.80
2019-02-20T18:35:32.949Z,65.80
2019-02-20T18:36:32.918Z,65.22
2019-02-20T18:37:32.889Z,64.94
2019-02-20T18:38:32.828Z,64.94
2019-02-20T18:39:32.801Z,64.84
2019-02-20T18:40:34.599Z,64.65
2019-02-20T18:41:32.741Z,65.22
2019-02-20T18:42:32.674Z,65.13
2019-02-20T18:43:32.638Z,64.94
2019-02-20T18:44:32.601Z,65.32
2019-02-20T18:45:32.565Z,64.56
2019-02-20T18:46:32.522Z,63.79
2019-02-20T18:47:32.481Z,63.51
2019-02-20T18:48:32.430Z,63.89
2019-02-20T18:49:32.392Z,62.75
2019-02-20T18:50:32.350Z,62.46
2019-02-20T18:51:32.314Z,61.32
2019-02-20T18:52:32.279Z,61.52
2019-02-20T18:53:32.236Z,61.71
2019-02-20T18:54:32.195Z,61.29
2019-02-20T18:55:32.152Z,61.10
2019-02-20T18:56:33.970Z,61.29
2019-02-20T18:57:32.083Z,60.91
2019-02-20T18:58:34.300Z,60.72
2019-02-20T18:59:32.000Z,61.01
2019-02-20T19:00:31.964Z,60.44
2019-02-20T19:01:31.942Z,60.44
2019-02-20T19:02:31.868Z,60.16
2019-02-20T19:03:31.836Z,60.06
2019-02-20T19:04:31.809Z,59.87
2019-02-20T19:05:33.640Z,59.96
2019-02-20T19:06:31.754Z,60.25
2019-02-20T19:07:31.685Z,60.06
2019-02-20T19:08:31.631Z,60.16
2019-02-20T19:09:31.607Z,58.92
2019-02-20T19:10:31.550Z,59.49
2019-02-20T19:11:31.570Z,59.20